Friday, December 14, 2018, 7:04 PM EST
Back to Local

KEWR, Newark International Airport

Location: Elizabeth, NJ, United States Lat: 40.683
Local Time: 7:04 PM EST ( 0:04 GMT) Lon: -74.167
Time Zone: US/Eastern Elev: 16 ft

Show me the last for .
Show Decoded

2018-12-14 18:51 METAR KEWR 142351Z VRB03KT 10SM -RA BKN009 BKN014 OVC070 09/08 A3033 RMK AO2
                 SLP270 P0000 60001 T00940078 10100 20094 58004 =
2018-12-14 17:51 METAR KEWR 142251Z 13003KT 10SM -RA BKN009 BKN014 OVC050 09/08 A3034 RMK AO2
                 RAB2155 SLP274 P0001 T00940078 =
2018-12-14 17:48 METAR KEWR 142248Z 13003KT 10SM -RA BKN009 BKN014 OVC050 09/08 A3034 RMK AO2
                 RAB2155 P0001 =
2018-12-14 17:05 METAR KEWR 142205Z 12004KT 10SM -RA BKN013 BKN040 OVC080 09/07 A3034 RMK AO2
                 RAB2155 P0000 T00940072 =
2018-12-14 16:51 METAR KEWR 142151Z 12003KT 10SM FEW015 BKN040 BKN070 OVC130 09/07 A3034 RMK AO2
                 SLP274 T00940072 =
2018-12-14 15:51 METAR KEWR 142051Z 14006KT 10SM FEW020 SCT040 OVC070 10/07 A3035 RMK AO2 SLP277
                 T01000072 58009 =
2018-12-14 14:51 METAR KEWR 141951Z 14008KT 10SM FEW015 SCT025 OVC040 10/07 A3036 RMK AO2 SLP281
                 T01000072 =
2018-12-14 14:45 METAR KEWR 141945Z 14008KT 10SM FEW015 SCT025 OVC040 10/07 A3037 RMK AO2 =
2018-12-14 13:51 METAR KEWR 141851Z 15005KT 10SM BKN016 BKN025 OVC040 10/07 A3038 RMK AO2 SLP285
                 T01000067 =
2018-12-14 12:51 METAR KEWR 141751Z 14005KT 10SM BKN015 OVC024 10/06 A3038 RMK AO2 SLP286
                 T01000061 10100 20044 56037 =
2018-12-14 11:51 METAR KEWR 141651Z 13007KT 10SM BKN022 BKN030 OVC036 10/06 A3039 RMK AO2 PRESFR
                 SLP291 CIG 020V026 T01000056 =
2018-12-14 10:51 METAR KEWR 141551Z 11007KT 10SM BKN021 OVC034 09/04 A3044 RMK AO2 SLP308 CIG
                 019V025 T00940044 =
2018-12-14 10:04 METAR KEWR 141504Z VRB04KT 10SM BKN025 OVC034 09/04 A3048 RMK AO2 CIG 022V028
                 T00890044 =
2018-12-14 09:51 METAR KEWR 141451Z 11005KT 10SM SCT023 OVC030 09/04 A3049 RMK AO2 SLP323
                 T00890044 51008 =
2018-12-14 08:51 METAR KEWR 141351Z 10005KT 10SM FEW030 OVC035 08/04 A3048 RMK AO2 SLP321
                 T00780044 =
2018-12-14 07:51 METAR KEWR 141251Z 01003KT 10SM FEW018 OVC032 06/03 A3048 RMK AO2 SLP320
                 T00560033 =
2018-12-14 07:29 METAR KEWR 141229Z 02005KT 10SM SCT018 OVC033 05/03 A3047 RMK AO2 T00500028 =
2018-12-14 06:51 METAR KEWR 141151Z 02006KT 10SM BKN018 OVC035 04/03 A3047 RMK AO2 SLP316 CIG
                 016V020 T00440028 10044 20028 55001 =
2018-12-14 06:40 METAR KEWR 141140Z 01005KT 10SM BKN018 OVC035 04/03 A3047 RMK AO2 CIG 016V020
                 T00440028 =
2018-12-14 05:51 METAR KEWR 141051Z 02008KT 10SM BKN014 BKN022 OVC035 04/03 A3045 RMK AO2 SLP311
                 T00440028 =
2018-12-14 04:51 METAR KEWR 140951Z 01007KT 10SM BKN014 OVC020 04/02 A3045 RMK AO2 SLP310
                 T00390022 =
2018-12-14 03:51 METAR KEWR 140851Z 03005KT 10SM BKN013 BKN021 OVC032 04/02 A3047 RMK AO2 SLP317
                 T00390022 53000 =
2018-12-14 02:51 METAR KEWR 140751Z 02007KT 10SM BKN013 BKN023 OVC032 04/02 A3047 RMK AO2 SLP317
                 T00390022 =
2018-12-14 01:51 METAR KEWR 140651Z 02008KT 10SM BKN013 OVC026 03/02 A3047 RMK AO2 SLP316
                 T00330022 =
2018-12-14 00:51 METAR KEWR 140551Z 02009KT 9SM BKN013 BKN028 OVC036 03/02 A3047 RMK AO2 SLP317
                 60000 T00280017 10033 20022 58002 =
2018-12-13 23:51 METAR KEWR 140451Z 02009KT 8SM FEW008 BKN013 OVC040 03/02 A3048 RMK AO2 SLP320
                 T00280017 400330000 =
2018-12-13 22:51 METAR KEWR 140351Z 02010KT 8SM FEW008 OVC012 03/02 A3049 RMK AO2 SLP322
                 T00280017 =
2018-12-13 21:51 METAR KEWR 140251Z 02009KT 8SM FEW008 BKN011 OVC030 03/01 A3048 RMK AO2 RAE24
                 SLP319 P0000 60000 T00280011 51006 =
2018-12-13 20:51 METAR KEWR 140151Z 01010KT 8SM -RA FEW008 BKN012 OVC035 03/01 A3047 RMK AO2
                 RAE03B49 SLP319 P0000 T00280011 =
2018-12-13 19:51 METAR KEWR 140051Z 02009KT 9SM -RA FEW008 BKN012 OVC040 03/01 A3047 RMK AO2
                 SLP317 P0000 T00280011 =

Support USWX by starting your Amazon purchase here.